map of BHH home
Great Circle Mapper logo
BHH - Airport
Location
City:  Bisha, Saudi Arabia
Name:Bisha Airport
ICAO / IATA:OEBH / BHH

Details
Type:Airport (Aerodrome, Airfield)
Use:Public/Civil, Military, International (customs port of entry)
Latitude:1959'03"N (19.984167)
Longitude:4237'23"E (42.623056)
Elevation:3887 ft (1185 m)
Variation:2.85E (WMM2015 magnetic declination)
0.05 annual change
Runways:1
Longest:10007 × 148 ft (3050 × 45 m), paved

Time
Time Zone:UTC+3
Local Time:

Weather
METAR:OEBH 041300Z 04011KT CAVOK 38/03 Q1010 NOSIG
TAF:OEBH 032231Z 0400/0506 36010KT 7000 FEW030 SCT100
BECMG 0406/0408 06014KT
TEMPO 0406/0416 3500 BLDU FEW030CB TAF OEGN 032231Z 0400/0506 15007KT 7000 FEW030 SCT100
TEMPO 0400/0406 4000 DU
BECMG 0406/0408 24015KT
TEMPO 0409/0417 3500 BLDU/TSRA FEW030CB SCT030

Related Locations
Nearby:
Farthest:ZTA: 12346 mi / 19869 km
Tureia, PF

Find:

   beyond  
but within

Other Information
Maps:
NOTAMs:
Links:
Sources:

  
flag of Saudi Arabia   

Sectional Chart

Flight Planning
at skyvector.com

Satellite Image

Google Maps Satellite view

 

Copyright © 2004-2015 Karl L. Swartz. All rights reserved.
The Great Circle Mapper name and logo are trademarks of the Great Circle Mapper.
All other trademarks mentioned herein belong to their respective owners.
Please see credits for attibutions and further copyright information.

  Follow gcmap on Facebook Follow gcmap on Twitter Follow gcmap on Google+

hCard Microformat

Geo Microformat